createdAt,value
2022-11-03T00:00:56.217Z,11.10
2022-11-03T00:01:56.354Z,17.50
2022-11-03T00:02:56.220Z,12.10
2022-11-03T00:03:56.169Z,17.50
2022-11-03T00:04:56.168Z,11.50
2022-11-03T00:05:56.163Z,14.00
2022-11-03T00:06:56.148Z,17.50
2022-11-03T00:07:56.119Z,21.50
2022-11-03T00:08:56.153Z,17.60
2022-11-03T00:09:56.116Z,15.50
2022-11-03T00:10:56.097Z,18.90
2022-11-03T00:11:56.082Z,12.80
2022-11-03T00:12:56.064Z,22.90
2022-11-03T00:13:56.070Z,12.70
2022-11-03T00:14:56.041Z,13.40
2022-11-03T00:15:56.022Z,14.20
2022-11-03T00:16:56.036Z,13.90
2022-11-03T00:17:55.991Z,14.60
2022-11-03T00:18:55.981Z,12.40
2022-11-03T00:19:55.986Z,15.40
2022-11-03T00:20:55.958Z,10.40
2022-11-03T00:21:55.965Z,11.70
2022-11-03T00:22:55.946Z,14.80
2022-11-03T00:23:55.919Z,10.80
2022-11-03T00:24:55.909Z,16.40
2022-11-03T00:25:55.897Z,17.00
2022-11-03T00:26:55.904Z,14.80
2022-11-03T00:27:55.939Z,16.90
2022-11-03T00:28:55.852Z,20.70
2022-11-03T00:29:55.846Z,13.50
2022-11-03T00:30:55.828Z,11.20
2022-11-03T00:31:55.838Z,14.50
2022-11-03T00:32:55.802Z,14.30
2022-11-03T00:33:55.813Z,18.90
2022-11-03T00:34:55.790Z,16.20
2022-11-03T00:35:55.775Z,18.70
2022-11-03T00:36:55.775Z,15.40
2022-11-03T00:37:55.739Z,16.60
2022-11-03T00:38:55.741Z,19.10
2022-11-03T00:39:55.723Z,14.20
2022-11-03T00:40:55.717Z,23.50
2022-11-03T00:41:55.709Z,17.30
2022-11-03T00:42:55.675Z,16.10
2022-11-03T00:43:55.677Z,16.00
2022-11-03T00:44:55.646Z,12.70
2022-11-03T00:45:55.646Z,18.50
2022-11-03T00:46:55.640Z,24.30
2022-11-03T00:47:55.626Z,15.30
2022-11-03T00:48:55.595Z,19.00
2022-11-03T00:49:55.586Z,19.00
2022-11-03T00:50:55.575Z,15.60
2022-11-03T00:51:55.580Z,26.30
2022-11-03T00:52:55.563Z,22.10
2022-11-03T00:53:55.563Z,16.00
2022-11-03T00:54:55.634Z,16.70
2022-11-03T00:55:55.518Z,22.40
2022-11-03T00:56:55.516Z,17.10
2022-11-03T00:57:55.488Z,17.90
2022-11-03T00:58:55.475Z,17.40
2022-11-03T00:59:55.466Z,16.30
2022-11-03T01:00:55.486Z,15.10
2022-11-03T01:01:55.632Z,13.60
2022-11-03T01:02:55.417Z,18.40
2022-11-03T01:03:55.433Z,22.30
2022-11-03T01:04:55.394Z,18.20
2022-11-03T01:05:55.394Z,20.40
2022-11-03T01:06:55.391Z,23.50
2022-11-03T01:07:55.412Z,11.50
2022-11-03T01:08:55.352Z,15.40
2022-11-03T01:09:55.333Z,21.90
2022-11-03T01:10:55.346Z,22.00
2022-11-03T01:11:55.352Z,16.10
2022-11-03T01:12:55.295Z,18.60
2022-11-03T01:13:55.307Z,19.50
2022-11-03T01:14:55.293Z,20.70
2022-11-03T01:15:55.260Z,21.60
2022-11-03T01:16:55.264Z,17.50
2022-11-03T01:17:55.232Z,23.30
2022-11-03T01:18:55.243Z,22.80
2022-11-03T01:19:55.211Z,17.40
2022-11-03T01:20:55.194Z,20.00
2022-11-03T01:21:55.222Z,22.50
2022-11-03T01:22:55.187Z,17.70
2022-11-03T01:23:55.181Z,15.20
2022-11-03T01:24:55.176Z,16.40
2022-11-03T01:25:55.129Z,17.20
2022-11-03T01:26:55.127Z,17.90
2022-11-03T01:27:55.131Z,16.50
2022-11-03T01:28:55.118Z,18.60
2022-11-03T01:29:55.077Z,16.80
2022-11-03T01:30:55.076Z,19.30
2022-11-03T01:31:55.070Z,17.20
2022-11-03T01:32:55.039Z,20.80
2022-11-03T01:33:55.033Z,14.90
2022-11-03T01:34:55.007Z,18.60
2022-11-03T01:35:55.028Z,23.90
2022-11-03T01:36:55.012Z,14.20
2022-11-03T01:37:54.976Z,16.30
2022-11-03T01:38:54.972Z,19.10
2022-11-03T01:39:54.985Z,24.20
2022-11-03T01:40:54.942Z,14.80
2022-11-03T01:41:54.937Z,14.10
2022-11-03T01:42:54.913Z,20.80
2022-11-03T01:43:54.911Z,17.90
2022-11-03T01:44:54.893Z,19.90
2022-11-03T01:45:54.875Z,25.50
2022-11-03T01:46:54.893Z,18.90
2022-11-03T01:47:54.895Z,18.00
2022-11-03T01:48:54.844Z,22.10
2022-11-03T01:49:54.831Z,17.10
2022-11-03T01:50:54.808Z,25.30
2022-11-03T01:51:54.859Z,14.50
2022-11-03T01:52:54.785Z,19.90
2022-11-03T01:53:54.773Z,18.20
2022-11-03T01:54:54.756Z,16.90
2022-11-03T01:55:54.757Z,24.50
2022-11-03T01:56:54.782Z,23.50
2022-11-03T01:57:54.727Z,20.70
2022-11-03T01:58:54.727Z,14.60
2022-11-03T01:59:54.699Z,14.10
2022-11-03T02:00:54.883Z,18.30
2022-11-03T02:01:54.845Z,21.10
2022-11-03T02:02:54.685Z,21.80
2022-11-03T02:03:54.662Z,21.40
2022-11-03T02:04:54.640Z,18.00
2022-11-03T02:05:54.652Z,17.90
2022-11-03T02:06:54.620Z,19.50
2022-11-03T02:07:54.613Z,18.60
2022-11-03T02:08:54.583Z,19.30
2022-11-03T02:09:54.572Z,15.10
2022-11-03T02:10:54.554Z,20.00
2022-11-03T02:11:54.588Z,23.50
2022-11-03T02:12:54.531Z,25.10
2022-11-03T02:13:54.529Z,19.30
2022-11-03T02:14:54.503Z,22.70
2022-11-03T02:15:54.497Z,15.50
2022-11-03T02:16:54.493Z,22.50
2022-11-03T02:17:54.473Z,13.10
2022-11-03T02:18:54.463Z,17.10
2022-11-03T02:19:54.446Z,18.70
2022-11-03T02:20:54.428Z,19.60
2022-11-03T02:21:54.431Z,24.20
2022-11-03T02:22:54.404Z,20.80
2022-11-03T02:23:54.391Z,24.30
2022-11-03T02:24:54.484Z,18.10
2022-11-03T02:25:54.373Z,19.20
2022-11-03T02:26:54.364Z,17.50
2022-11-03T02:27:54.363Z,24.90
2022-11-03T02:28:54.320Z,16.20
2022-11-03T02:29:54.349Z,23.90
2022-11-03T02:30:54.292Z,15.60
2022-11-03T02:31:54.345Z,16.80
2022-11-03T02:32:54.289Z,14.20
2022-11-03T02:33:54.267Z,14.20
2022-11-03T02:34:54.248Z,20.60
2022-11-03T02:35:54.246Z,15.50
2022-11-03T02:36:54.235Z,16.80
2022-11-03T02:37:54.213Z,14.20
2022-11-03T02:38:54.195Z,18.30
2022-11-03T02:39:54.186Z,14.60
2022-11-03T02:40:54.170Z,18.10
2022-11-03T02:41:54.176Z,16.10
2022-11-03T02:43:00.165Z,17.50
2022-11-03T02:43:54.150Z,16.40
2022-11-03T02:44:54.136Z,16.70
2022-11-03T02:45:54.144Z,15.50
2022-11-03T02:46:54.143Z,16.50
2022-11-03T02:47:54.105Z,18.40
2022-11-03T02:48:54.084Z,16.70
2022-11-03T02:50:53.083Z,20.30
2022-11-03T02:51:54.079Z,17.40
2022-11-03T02:52:54.030Z,19.70
2022-11-03T02:53:54.025Z,16.30
2022-11-03T02:54:54.009Z,17.50
2022-11-03T02:55:53.998Z,14.20
2022-11-03T02:56:53.998Z,26.30
2022-11-03T02:57:53.984Z,20.40
2022-11-03T02:58:53.952Z,21.70
2022-11-03T02:59:53.949Z,16.80
2022-11-03T03:00:54.004Z,12.60
2022-11-03T03:01:54.035Z,16.70
2022-11-03T03:02:53.916Z,18.60
2022-11-03T03:03:53.929Z,21.50
2022-11-03T03:04:53.902Z,16.80
2022-11-03T03:05:53.879Z,12.10
2022-11-03T03:06:53.930Z,17.00
2022-11-03T03:07:53.864Z,16.90
2022-11-03T03:08:53.833Z,11.30
2022-11-03T03:09:53.820Z,23.10
2022-11-03T03:10:53.822Z,13.30
2022-11-03T03:11:53.810Z,12.40
2022-11-03T03:12:53.819Z,16.10
2022-11-03T03:13:53.777Z,14.60
2022-11-03T03:14:53.795Z,17.50
2022-11-03T03:15:53.787Z,18.10
2022-11-03T03:16:53.746Z,18.70
2022-11-03T03:17:53.734Z,16.10
2022-11-03T03:18:53.727Z,19.10
2022-11-03T03:19:53.718Z,17.60
2022-11-03T03:20:53.720Z,12.80
2022-11-03T03:21:53.695Z,15.90
2022-11-03T03:22:53.650Z,19.80
2022-11-03T03:23:53.639Z,16.50
2022-11-03T03:24:53.629Z,18.90
2022-11-03T03:25:53.609Z,17.40
2022-11-03T03:26:53.636Z,17.20
2022-11-03T03:27:53.593Z,16.70
2022-11-03T03:28:53.572Z,16.40
2022-11-03T03:29:53.567Z,20.90
2022-11-03T03:30:53.548Z,18.80
2022-11-03T03:31:53.559Z,20.20
2022-11-03T03:32:53.530Z,19.20
2022-11-03T03:33:59.762Z,24.30
2022-11-03T03:34:53.513Z,19.60
2022-11-03T03:35:53.506Z,23.10
2022-11-03T03:36:53.489Z,22.60
2022-11-03T03:39:54.062Z,16.70
2022-11-03T03:40:55.047Z,15.70
2022-11-03T03:41:55.041Z,23.60
2022-11-03T03:42:55.024Z,17.70
2022-11-03T03:43:55.042Z,18.60
2022-11-03T03:44:54.989Z,17.20
2022-11-03T03:45:54.979Z,17.10
2022-11-03T03:46:54.990Z,18.40
2022-11-03T03:47:57.782Z,17.90
2022-11-03T03:48:54.943Z,23.40
2022-11-03T03:49:54.948Z,19.20
2022-11-03T03:50:54.926Z,17.50
2022-11-03T03:51:54.920Z,22.20
2022-11-03T03:52:54.903Z,19.50
2022-11-03T03:53:54.883Z,17.40
2022-11-03T03:54:54.877Z,18.00
2022-11-03T03:55:54.864Z,21.70
2022-11-03T03:56:54.899Z,19.20
2022-11-03T03:57:57.953Z,17.80
2022-11-03T03:58:54.829Z,19.60
2022-11-03T03:59:54.919Z,18.60
2022-11-03T04:00:54.860Z,17.30
2022-11-03T04:01:54.933Z,14.20
2022-11-03T04:02:54.777Z,17.00
2022-11-03T04:03:54.765Z,17.50
2022-11-03T04:04:54.774Z,18.00
2022-11-03T04:05:54.724Z,17.80
2022-11-03T04:06:54.733Z,16.60
2022-11-03T04:07:54.714Z,22.30
2022-11-03T04:08:54.704Z,19.00
2022-11-03T04:09:54.751Z,22.40
2022-11-03T04:10:54.663Z,32.10
2022-11-03T04:11:54.667Z,16.10
2022-11-03T04:12:54.653Z,25.00
2022-11-03T04:13:54.623Z,22.00
2022-11-03T04:14:54.611Z,16.50
2022-11-03T04:15:54.599Z,20.80
2022-11-03T04:16:54.625Z,20.30
2022-11-03T04:17:54.601Z,18.60
2022-11-03T04:18:54.563Z,23.10
2022-11-03T04:19:54.556Z,18.10
2022-11-03T04:20:54.577Z,20.00
2022-11-03T04:21:54.546Z,17.90
2022-11-03T04:22:54.551Z,17.20
2022-11-03T04:23:54.506Z,21.50
2022-11-03T04:24:54.489Z,14.30
2022-11-03T04:25:54.478Z,9.80
2022-11-03T04:26:54.486Z,23.40
2022-11-03T04:27:54.452Z,21.70
2022-11-03T04:28:54.438Z,20.90
2022-11-03T04:29:54.425Z,17.00
2022-11-03T04:30:56.152Z,18.40
2022-11-03T04:31:54.426Z,16.80
2022-11-03T04:32:54.396Z,21.80
2022-11-03T04:33:54.378Z,16.90
2022-11-03T04:34:54.365Z,19.20
2022-11-03T04:35:54.361Z,22.30
2022-11-03T04:36:54.375Z,18.90
2022-11-03T04:39:54.961Z,18.90
2022-11-03T04:40:55.901Z,17.70
2022-11-03T04:41:55.933Z,12.70
2022-11-03T04:42:55.881Z,18.40
2022-11-03T04:43:55.867Z,21.80
2022-11-03T04:44:55.855Z,18.30
2022-11-03T04:45:55.857Z,19.90
2022-11-03T04:46:55.855Z,24.70
2022-11-03T04:47:55.825Z,24.00
2022-11-03T04:48:55.808Z,20.30
2022-11-03T04:49:55.797Z,16.60
2022-11-03T04:50:55.783Z,15.70
2022-11-03T04:51:55.804Z,18.50
2022-11-03T04:52:55.753Z,13.50
2022-11-03T04:53:55.749Z,18.80
2022-11-03T04:54:55.739Z,18.40
2022-11-03T04:55:55.731Z,17.80
2022-11-03T04:56:55.744Z,21.00
2022-11-03T04:57:55.722Z,17.20
2022-11-03T04:58:55.678Z,18.80
2022-11-03T04:59:55.713Z,23.70
2022-11-03T05:00:55.724Z,16.80
2022-11-03T05:01:55.887Z,19.00
2022-11-03T05:02:56.375Z,22.90
2022-11-03T05:03:55.655Z,18.60
2022-11-03T05:04:55.621Z,21.50
2022-11-03T05:05:55.598Z,21.30
2022-11-03T05:06:55.699Z,17.60
2022-11-03T05:07:55.578Z,19.00
2022-11-03T05:08:55.566Z,24.50
2022-11-03T05:09:55.554Z,14.70
2022-11-03T05:10:55.557Z,23.50
2022-11-03T05:11:55.554Z,14.50
2022-11-03T05:12:55.507Z,17.40
2022-11-03T05:13:55.502Z,17.50
2022-11-03T05:14:58.246Z,18.60
2022-11-03T05:15:55.517Z,18.50
2022-11-03T05:16:55.502Z,22.10
2022-11-03T05:17:55.451Z,13.70
2022-11-03T05:18:55.470Z,13.50
2022-11-03T05:19:55.472Z,15.20
2022-11-03T05:20:55.506Z,11.50
2022-11-03T05:21:55.424Z,19.30
2022-11-03T05:22:55.383Z,19.20
2022-11-03T05:23:55.373Z,14.70
2022-11-03T05:24:55.351Z,17.50
2022-11-03T05:25:55.356Z,17.70
2022-11-03T05:26:55.382Z,13.00
2022-11-03T05:27:55.325Z,17.70
2022-11-03T05:28:55.332Z,16.60
2022-11-03T05:29:57.934Z,13.30
2022-11-03T05:30:55.287Z,12.50
2022-11-03T05:31:55.289Z,14.20
2022-11-03T05:32:55.260Z,17.70
2022-11-03T05:33:55.242Z,25.20
2022-11-03T05:34:55.231Z,15.00
2022-11-03T05:35:55.286Z,22.60
2022-11-03T05:36:55.234Z,17.30
2022-11-03T05:37:55.204Z,25.70
2022-11-03T05:38:55.176Z,16.80
2022-11-03T05:39:55.192Z,19.40
2022-11-03T05:40:55.171Z,21.30
2022-11-03T05:41:55.189Z,19.60
2022-11-03T05:42:55.153Z,17.80
2022-11-03T05:43:55.126Z,20.70
2022-11-03T05:44:55.117Z,16.80
2022-11-03T05:45:55.238Z,20.00
2022-11-03T05:46:55.095Z,18.00
2022-11-03T05:47:55.085Z,16.50
2022-11-03T05:48:55.087Z,19.60
2022-11-03T05:49:55.093Z,19.80
2022-11-03T05:50:55.051Z,15.70
2022-11-03T05:51:55.069Z,13.50
2022-11-03T05:52:55.021Z,18.50
2022-11-03T05:53:55.014Z,13.30
2022-11-03T05:54:54.938Z,17.80
2022-11-03T05:55:55.030Z,16.40
2022-11-03T05:56:54.996Z,19.90
2022-11-03T05:57:54.983Z,16.20
2022-11-03T05:58:54.962Z,23.20
2022-11-03T05:59:54.901Z,14.10
2022-11-03T06:00:54.854Z,14.30
2022-11-03T06:01:55.049Z,12.20
2022-11-03T06:02:54.947Z,14.50
2022-11-03T06:03:54.831Z,20.80
2022-11-03T06:04:54.835Z,19.30
2022-11-03T06:05:54.802Z,17.30
2022-11-03T06:06:55.159Z,13.30
2022-11-03T06:07:55.004Z,14.90
2022-11-03T06:08:54.751Z,13.00
2022-11-03T06:09:54.745Z,15.10
2022-11-03T06:10:54.724Z,24.30
2022-11-03T06:11:54.742Z,14.00
2022-11-03T06:12:54.699Z,21.40
2022-11-03T06:13:54.704Z,18.30
2022-11-03T06:14:54.673Z,11.70
2022-11-03T06:15:54.664Z,13.10
2022-11-03T06:16:54.668Z,14.00
2022-11-03T06:17:54.639Z,16.10
2022-11-03T06:18:54.630Z,23.50
2022-11-03T06:19:54.641Z,19.50
2022-11-03T06:20:54.611Z,15.00
2022-11-03T06:21:54.617Z,18.30
2022-11-03T06:22:54.591Z,18.90
2022-11-03T06:23:54.569Z,15.10
2022-11-03T06:24:54.546Z,15.70
2022-11-03T06:25:54.557Z,14.90
2022-11-03T06:26:54.556Z,17.60
2022-11-03T06:27:54.520Z,15.90
2022-11-03T06:28:54.522Z,21.00
2022-11-03T06:29:54.506Z,16.10
2022-11-03T06:30:54.468Z,21.00
2022-11-03T06:31:54.487Z,17.50
2022-11-03T06:32:54.458Z,12.50
2022-11-03T06:33:54.449Z,15.30
2022-11-03T06:34:54.423Z,18.70
2022-11-03T06:35:54.417Z,10.70
2022-11-03T06:36:54.410Z,18.40
2022-11-03T06:37:54.383Z,16.70
2022-11-03T06:38:54.374Z,24.50
2022-11-03T06:39:54.361Z,18.00
2022-11-03T06:40:54.352Z,13.20
2022-11-03T06:41:54.370Z,18.50
2022-11-03T06:42:54.400Z,16.50
2022-11-03T06:43:54.317Z,18.10
2022-11-03T06:44:54.333Z,17.10
2022-11-03T06:45:54.283Z,15.90
2022-11-03T06:46:54.302Z,19.70
2022-11-03T06:47:54.257Z,16.80
2022-11-03T06:48:54.257Z,12.00
2022-11-03T06:49:54.234Z,22.10
2022-11-03T06:50:54.224Z,16.30
2022-11-03T06:51:54.229Z,19.50
2022-11-03T06:52:54.232Z,16.60
2022-11-03T06:53:54.193Z,18.60
2022-11-03T06:54:54.183Z,22.30
2022-11-03T06:55:54.161Z,16.40
2022-11-03T06:56:54.238Z,21.50
2022-11-03T06:57:54.130Z,17.60
2022-11-03T06:58:54.135Z,17.80
2022-11-03T07:00:06.816Z,25.20
2022-11-03T07:00:56.681Z,21.30
2022-11-03T07:01:54.175Z,14.60
2022-11-03T07:02:54.079Z,23.40
2022-11-03T07:03:54.055Z,17.30
2022-11-03T07:04:54.050Z,22.20
2022-11-03T07:05:54.037Z,53.40
2022-11-03T07:06:54.050Z,20.80
2022-11-03T07:07:54.007Z,22.00
2022-11-03T07:08:54.008Z,16.20
2022-11-03T07:09:53.984Z,13.70
2022-11-03T07:10:53.975Z,17.20
2022-11-03T07:11:53.982Z,19.20
2022-11-03T07:12:53.974Z,20.20
2022-11-03T07:13:53.934Z,15.40
2022-11-03T07:14:53.948Z,14.70
2022-11-03T07:15:53.911Z,19.20
2022-11-03T07:16:53.912Z,19.10
2022-11-03T07:17:53.885Z,15.00
2022-11-03T07:18:53.883Z,15.90
2022-11-03T07:19:53.876Z,18.90
2022-11-03T07:20:53.849Z,15.30
2022-11-03T07:21:53.864Z,17.50
2022-11-03T07:22:53.831Z,17.10
2022-11-03T07:23:53.838Z,20.80
2022-11-03T07:24:53.817Z,16.30
2022-11-03T07:25:53.796Z,17.40
2022-11-03T07:26:53.812Z,21.80
2022-11-03T07:27:53.765Z,14.60
2022-11-03T07:28:53.755Z,22.00
2022-11-03T07:29:53.745Z,14.20
2022-11-03T07:30:53.733Z,21.80
2022-11-03T07:31:53.736Z,20.30
2022-11-03T07:32:53.706Z,15.60
2022-11-03T07:33:53.683Z,16.30
2022-11-03T07:34:53.676Z,21.50
2022-11-03T07:36:14.480Z,19.30
2022-11-03T07:36:55.972Z,15.80
2022-11-03T07:37:53.634Z,13.90
2022-11-03T07:38:53.647Z,20.10
2022-11-03T07:39:53.608Z,24.90
2022-11-03T07:40:53.599Z,17.60
2022-11-03T07:41:53.615Z,16.50
2022-11-03T07:42:53.575Z,26.70
2022-11-03T07:43:53.554Z,18.50
2022-11-03T07:44:53.551Z,19.10
2022-11-03T07:45:53.531Z,18.20
2022-11-03T07:46:53.546Z,17.80
2022-11-03T07:47:53.512Z,19.70
2022-11-03T07:48:53.499Z,25.30
2022-11-03T07:49:53.483Z,17.10
2022-11-03T07:50:53.476Z,22.10
2022-11-03T07:51:53.474Z,18.70
2022-11-03T07:52:53.449Z,15.10
2022-11-03T07:53:53.454Z,15.80
2022-11-03T07:54:53.421Z,19.70
2022-11-03T07:55:53.531Z,15.60
2022-11-03T07:56:53.427Z,18.10
2022-11-03T07:57:53.380Z,14.70
2022-11-03T07:58:53.383Z,17.80
2022-11-03T07:59:53.361Z,18.90
2022-11-03T08:00:53.350Z,13.50
2022-11-03T08:01:53.454Z,21.60
2022-11-03T08:02:53.384Z,18.20
2022-11-03T08:03:53.345Z,14.00
2022-11-03T08:04:53.286Z,15.60
2022-11-03T08:05:53.279Z,17.50
2022-11-03T08:06:53.302Z,19.50
2022-11-03T08:07:53.272Z,15.80
2022-11-03T08:08:53.246Z,16.60
2022-11-03T08:09:53.222Z,15.60
2022-11-03T08:10:53.229Z,20.20
2022-11-03T08:11:53.209Z,18.50
2022-11-03T08:12:53.200Z,15.80
2022-11-03T08:13:53.170Z,14.60
2022-11-03T08:14:53.168Z,15.30
2022-11-03T08:20:02.374Z,14.20
2022-11-03T08:21:03.278Z,22.50
2022-11-03T08:22:03.309Z,14.10
2022-11-03T08:23:24.642Z,19.60
2022-11-03T08:24:03.255Z,19.50
2022-11-03T08:25:03.235Z,16.80
2022-11-03T08:26:03.237Z,21.70
2022-11-03T08:27:03.225Z,16.00
2022-11-03T08:28:03.222Z,14.90
2022-11-03T08:29:03.211Z,14.30
2022-11-03T08:30:03.174Z,17.70
2022-11-03T08:31:06.681Z,22.50
2022-11-03T08:32:03.171Z,13.80
2022-11-03T08:33:03.255Z,20.90
2022-11-03T08:35:14.147Z,14.40
2022-11-03T08:36:15.118Z,21.10
2022-11-03T08:37:15.947Z,19.60
2022-11-03T08:38:15.091Z,22.70
2022-11-03T08:39:15.086Z,19.40
2022-11-03T08:40:15.070Z,17.50
2022-11-03T08:41:15.058Z,12.90
2022-11-03T08:42:15.065Z,16.90
2022-11-03T08:43:15.028Z,14.40
2022-11-03T08:44:15.026Z,14.70
2022-11-03T08:45:15.002Z,20.30
2022-11-03T08:46:18.186Z,19.10
2022-11-03T08:47:15.005Z,16.00
2022-11-03T08:48:14.975Z,16.70
2022-11-03T08:49:15.001Z,17.30
2022-11-03T08:50:14.953Z,13.30
2022-11-03T08:51:14.950Z,11.30
2022-11-03T08:52:14.938Z,17.30
2022-11-03T08:53:14.930Z,14.10
2022-11-03T08:54:14.889Z,12.10
2022-11-03T08:55:15.657Z,12.00
2022-11-03T08:56:16.981Z,16.50
2022-11-03T08:57:14.857Z,16.90
2022-11-03T08:58:14.837Z,14.50
2022-11-03T08:59:14.840Z,9.00
2022-11-03T09:00:14.847Z,15.00
2022-11-03T09:01:14.890Z,8.70
2022-11-03T09:02:14.798Z,15.60
2022-11-03T09:03:14.816Z,12.40
2022-11-03T09:04:14.841Z,12.30
2022-11-03T09:05:14.870Z,15.80
2022-11-03T09:06:14.735Z,11.70
2022-11-03T09:07:15.086Z,16.10
2022-11-03T09:11:14.674Z,13.30
2022-11-03T09:12:14.692Z,12.20
2022-11-03T09:13:14.689Z,12.30
2022-11-03T09:14:14.705Z,16.80
2022-11-03T09:15:14.621Z,10.40
2022-11-03T09:16:14.610Z,16.60
2022-11-03T09:17:14.608Z,14.20
2022-11-03T09:18:14.586Z,9.30
2022-11-03T09:19:14.577Z,7.70
2022-11-03T09:20:14.586Z,16.70
2022-11-03T09:21:14.562Z,18.30
2022-11-03T09:22:14.567Z,15.40
2022-11-03T09:23:14.561Z,15.30
2022-11-03T09:24:14.504Z,11.50
2022-11-03T09:25:14.496Z,9.80
2022-11-03T09:26:14.478Z,6.80
2022-11-03T09:27:14.479Z,9.30
2022-11-03T09:28:14.457Z,17.30
2022-11-03T09:29:14.440Z,10.50
2022-11-03T09:30:14.720Z,15.30
2022-11-03T09:31:14.416Z,17.10
2022-11-03T09:32:17.671Z,6.90
2022-11-03T09:33:14.366Z,7.90
2022-11-03T09:39:53.582Z,18.90
2022-11-03T09:40:54.543Z,11.80
2022-11-03T09:41:58.714Z,11.00
2022-11-03T09:42:54.511Z,10.30
2022-11-03T09:43:54.498Z,12.10
2022-11-03T09:44:54.480Z,15.10
2022-11-03T09:45:54.482Z,12.40
2022-11-03T09:46:58.198Z,8.20
2022-11-03T09:47:54.445Z,11.00
2022-11-03T09:48:54.443Z,9.50
2022-11-03T09:49:54.443Z,13.90
2022-11-03T09:50:54.403Z,11.40
2022-11-03T09:51:54.451Z,10.00
2022-11-03T09:52:54.399Z,15.50
2022-11-03T09:53:54.407Z,15.10
2022-11-03T09:54:54.427Z,11.70
2022-11-03T09:55:54.375Z,8.80
2022-11-03T09:56:54.334Z,13.10
2022-11-03T09:57:54.318Z,14.00
2022-11-03T09:58:54.941Z,16.50
2022-11-03T09:59:54.359Z,9.50
2022-11-03T10:00:54.425Z,17.70
2022-11-03T10:01:54.446Z,12.50
2022-11-03T10:02:54.245Z,9.10
2022-11-03T10:03:54.231Z,11.40
2022-11-03T10:04:54.294Z,9.00
2022-11-03T10:05:54.211Z,15.50
2022-11-03T10:06:54.209Z,10.50
2022-11-03T10:08:54.283Z,14.10
2022-11-03T10:09:54.163Z,16.30
2022-11-03T10:10:54.129Z,12.30
2022-11-03T10:11:54.166Z,13.70
2022-11-03T10:12:54.675Z,20.20
2022-11-03T10:13:54.119Z,12.60
2022-11-03T10:14:54.088Z,11.30
2022-11-03T10:15:54.085Z,9.50
2022-11-03T10:16:54.100Z,15.60
2022-11-03T10:17:54.050Z,17.10
2022-11-03T10:18:54.024Z,11.30
2022-11-03T10:19:54.021Z,12.90
2022-11-03T10:20:54.016Z,11.20
2022-11-03T10:21:54.007Z,14.80
2022-11-03T10:22:53.967Z,16.00
2022-11-03T10:23:53.959Z,10.90
2022-11-03T10:24:53.944Z,9.20
2022-11-03T10:25:53.935Z,10.40
2022-11-03T10:26:53.953Z,9.20
2022-11-03T10:27:53.928Z,11.20
2022-11-03T10:28:53.893Z,13.80
2022-11-03T10:29:58.003Z,10.30
2022-11-03T10:31:54.044Z,12.20
2022-11-03T10:32:53.842Z,12.20
2022-11-03T10:33:53.846Z,12.30
2022-11-03T10:34:53.818Z,13.10
2022-11-03T10:35:53.861Z,10.00
2022-11-03T10:36:53.819Z,14.60
2022-11-03T10:37:53.799Z,6.70
2022-11-03T10:38:53.777Z,8.70
2022-11-03T10:39:53.755Z,9.70
2022-11-03T10:40:53.745Z,8.60
2022-11-03T10:41:53.759Z,8.70
2022-11-03T10:42:53.723Z,16.10
2022-11-03T10:43:53.744Z,10.60
2022-11-03T10:44:53.733Z,10.00
2022-11-03T10:45:53.677Z,9.20
2022-11-03T10:46:53.685Z,11.90
2022-11-03T10:47:56.810Z,8.00
2022-11-03T10:48:53.696Z,10.00
2022-11-03T10:49:53.627Z,10.60
2022-11-03T10:50:53.612Z,11.90
2022-11-03T10:51:53.622Z,8.00
2022-11-03T10:52:53.586Z,8.10
2022-11-03T10:53:53.574Z,11.30
2022-11-03T10:54:53.553Z,5.50
2022-11-03T10:55:53.549Z,12.50
2022-11-03T10:56:53.566Z,8.70
2022-11-03T10:57:53.535Z,8.80
2022-11-03T10:58:53.543Z,10.40
2022-11-03T10:59:53.494Z,9.20
2022-11-03T11:00:53.671Z,12.20
2022-11-03T11:01:53.650Z,5.20
2022-11-03T11:02:53.469Z,9.00
2022-11-03T11:03:53.496Z,10.70
2022-11-03T11:04:53.421Z,12.40
2022-11-03T11:05:53.405Z,11.80
2022-11-03T11:06:53.424Z,11.50
2022-11-03T11:07:53.466Z,10.50
2022-11-03T11:08:58.810Z,7.40
2022-11-03T11:09:53.367Z,9.10
2022-11-03T11:10:53.340Z,10.80
2022-11-03T11:11:53.345Z,7.90
2022-11-03T11:12:53.312Z,7.20
2022-11-03T11:13:53.303Z,12.00
2022-11-03T11:14:53.284Z,8.60
2022-11-03T11:15:53.282Z,10.50
2022-11-03T11:16:53.273Z,8.90
2022-11-03T11:17:53.258Z,6.40
2022-11-03T11:18:53.233Z,5.20
2022-11-03T11:19:53.214Z,7.40
2022-11-03T11:20:53.207Z,13.80
2022-11-03T11:21:53.211Z,6.40
2022-11-03T11:22:53.186Z,7.50
2022-11-03T11:23:53.274Z,9.40
2022-11-03T11:24:53.151Z,11.40
2022-11-03T11:25:53.152Z,8.80
2022-11-03T11:26:53.152Z,10.60
2022-11-03T11:27:57.086Z,8.70
2022-11-03T11:28:53.102Z,4.40
2022-11-03T11:29:53.100Z,9.60
2022-11-03T11:30:53.073Z,6.90
2022-11-03T11:31:53.075Z,5.50
2022-11-03T11:32:53.053Z,14.50
2022-11-03T11:40:02.281Z,12.00
2022-11-03T11:41:03.240Z,10.30
2022-11-03T11:42:03.240Z,11.40
2022-11-03T11:43:03.256Z,12.70
2022-11-03T11:44:03.198Z,8.30
2022-11-03T11:45:03.198Z,8.70
2022-11-03T11:46:03.157Z,6.00
2022-11-03T11:47:03.517Z,15.00
2022-11-03T11:48:03.131Z,11.30
2022-11-03T11:49:03.254Z,11.80
2022-11-03T11:50:03.103Z,6.70
2022-11-03T11:51:03.095Z,11.60
2022-11-03T11:52:03.085Z,13.20
2022-11-03T11:53:03.059Z,12.20
2022-11-03T11:54:17.149Z,8.80
2022-11-03T11:55:03.040Z,11.30
2022-11-03T11:56:03.035Z,8.30
2022-11-03T11:57:03.023Z,8.00
2022-11-03T11:58:02.988Z,8.20
2022-11-03T11:59:02.979Z,9.10
2022-11-03T12:00:02.995Z,10.70
2022-11-03T12:01:03.097Z,14.60
2022-11-03T12:02:03.115Z,6.40
2022-11-03T12:03:03.015Z,7.50
2022-11-03T12:04:03.144Z,8.00
2022-11-03T12:05:02.903Z,6.60
2022-11-03T12:06:02.878Z,9.10
2022-11-03T12:07:02.891Z,8.30
2022-11-03T12:08:02.878Z,9.00
2022-11-03T12:09:02.870Z,10.40
2022-11-03T12:10:02.816Z,11.70
2022-11-03T12:11:02.928Z,10.00
2022-11-03T12:12:08.379Z,7.80
2022-11-03T12:13:02.788Z,5.10
2022-11-03T12:14:02.762Z,5.20
2022-11-03T12:15:02.812Z,9.80
2022-11-03T12:16:02.736Z,5.20
2022-11-03T12:17:02.744Z,5.80
2022-11-03T12:18:02.711Z,10.30
2022-11-03T12:19:02.703Z,9.10
2022-11-03T12:20:02.679Z,14.40
2022-11-03T12:21:02.672Z,8.40
2022-11-03T12:22:02.675Z,8.20
2022-11-03T12:25:51.780Z,11.70
2022-11-03T12:26:52.777Z,4.30
2022-11-03T12:27:52.738Z,8.00
2022-11-03T12:28:52.726Z,9.20
2022-11-03T12:29:52.712Z,8.90
2022-11-03T12:30:52.750Z,5.60
2022-11-03T12:31:52.702Z,5.50
2022-11-03T12:32:52.675Z,6.70
2022-11-03T12:33:52.663Z,9.50
2022-11-03T12:34:52.676Z,9.60
2022-11-03T12:35:52.632Z,5.90
2022-11-03T12:36:56.108Z,6.60
2022-11-03T12:37:52.608Z,9.30
2022-11-03T12:38:52.582Z,5.40
2022-11-03T12:39:52.578Z,9.00
2022-11-03T12:40:52.556Z,5.50
2022-11-03T12:41:52.583Z,5.30
2022-11-03T12:42:52.551Z,8.60
2022-11-03T12:43:53.230Z,4.50
2022-11-03T12:44:52.524Z,7.50
2022-11-03T12:45:52.485Z,7.20
2022-11-03T12:46:52.494Z,4.80
2022-11-03T12:47:52.473Z,8.30
2022-11-03T12:48:52.454Z,9.40
2022-11-03T12:49:52.445Z,4.20
2022-11-03T12:50:52.440Z,4.20
2022-11-03T12:51:52.431Z,5.00
2022-11-03T12:52:52.396Z,7.70
2022-11-03T12:53:52.385Z,9.00
2022-11-03T12:54:52.384Z,5.00
2022-11-03T12:55:52.350Z,8.10
2022-11-03T12:56:52.354Z,6.00
2022-11-03T12:57:52.353Z,10.60
2022-11-03T12:58:52.330Z,4.20
2022-11-03T12:59:52.306Z,4.70
2022-11-03T13:00:55.224Z,6.10
2022-11-03T13:01:52.411Z,4.90
2022-11-03T13:02:52.498Z,6.40
2022-11-03T13:03:52.274Z,4.50
2022-11-03T13:04:52.220Z,7.40
2022-11-03T13:05:52.216Z,9.00
2022-11-03T13:06:52.216Z,8.30
2022-11-03T13:07:52.189Z,4.30
2022-11-03T13:08:53.338Z,6.30
2022-11-03T13:09:52.155Z,7.30
2022-11-03T13:10:52.151Z,5.80
2022-11-03T13:11:52.157Z,12.20
2022-11-03T13:12:52.120Z,7.10
2022-11-03T13:13:52.107Z,7.10
2022-11-03T13:14:52.093Z,9.10
2022-11-03T13:15:52.092Z,10.60
2022-11-03T13:16:52.103Z,5.60
2022-11-03T13:18:12.399Z,8.70
2022-11-03T13:18:52.060Z,6.90
2022-11-03T13:19:54.755Z,5.80
2022-11-03T13:20:52.017Z,9.70
2022-11-03T13:21:52.044Z,11.80
2022-11-03T13:22:52.002Z,8.80
2022-11-03T13:23:52.023Z,8.00
2022-11-03T13:24:51.971Z,15.80
2022-11-03T13:25:52.002Z,9.30
2022-11-03T13:26:51.986Z,14.50